カンクン の空港の天気 - METARとTAF

カンクン国際空港 ( MMUN / CUN ) - メキシコ キンタナ・ロー州カンクン
飛行場実況気象(Metar)
観測時間08/05 01:45 CDT (08/05 06:45 UTC)
風向・風速東南東 3m/s
視程9650m
天気現象
全天の4割程度の雲 雲底高度 460m
全天の4割程度の雲 雲底高度 7620m
気温26℃
湿度100%
気圧1015hPa
METARMMUN 050645Z 12005KT 6SM SCT015TCU SCT250 26/26 A2996 RMK 8/208
過去の天気等 Google飛行場航空写真 Wunderground天気予報

過去48時間のMETAR

飛行場予報(TAF)
発表時間: 8/05 01:12 CDT (8/05 06:12 UTC)
予報対象時間: 5日1時 CDT ~ 6日7時 CDT
風向・風速東 3m/s
視程10km以上
天気現象しゅう雨
全天の4割程度の積乱雲 雲底高度 460m
5日2時 CDT から
風向・風速東 3m/s
視程10km以上
全天の4割程度の雲 雲底高度 460m
5日5時 CDT ~ 5日9時 CDT に一時的に
視程8050m
天気現象
全天の8割程度の雲 雲底高度 460m
全天の8割程度の雲 雲底高度 2130m
5日11時 CDT から
風向・風速東 5m/s
視程10km以上
天気現象弱い雨
全天の8割程度の雲 雲底高度 460m
全天の8割程度の雲 雲底高度 2130m
5日16時 CDT ~ 5日20時 CDT に一時的に
視程8050m
天気現象雷雨
全天の8割程度の積乱雲 雲底高度 460m
TAF AMD MMUN 050612Z 0506/0612 09005KT 6SM SHRA SCT015CB TX33/0518Z TN25/0510Z
FM050700 09005KT P6SM SCT015
TEMPO 0510/0514 5SM RA BKN015 BKN070
FM051600 09010KT P6SM -RA BKN015 BKN070
TEMPO 0521/0601 5SM TSRA BKN015CB 00000KT P6SM